Time;durP1;ratioP1;P1;durP2;ratioP2;P2;SDS_P1;SDS_P2;PMS_P1;PMS_P2;Temp;Humidity;BMP_temperature;BMP_pressure;BME280_temperature;BME280_humidity;BME280_pressure;Samples;Min_cycle;Max_cycle;Signal;HPM_P1;HPM_P2
2021/03/28 00:01:47;;;;;;;29.18;17.17;;;;;;;5.31;55.95;101546.45;1756018;80;21138;-49
2021/03/28 00:04:15;;;;;;;26.90;16.42;;;;;;;5.26;56.03;101546.78;1761904;81;21317;-48
2021/03/28 00:06:56;;;;;;;27.05;16.65;;;;;;;5.10;56.32;101535.89;1741289;81;21117;-61
2021/03/28 00:09:29;;;;;;;33.73;18.65;;;;;;;5.00;56.61;101541.27;1756190;80;21139;-62
2021/03/28 00:12:12;;;;;;;30.45;18.48;;;;;;;4.98;56.85;101531.61;1738543;81;21578;-62
2021/03/28 00:15:05;;;;;;;28.98;17.00;;;;;;;4.96;56.90;101530.27;1761810;80;21567;-50
2021/03/28 00:17:45;;;;;;;32.73;18.87;;;;;;;4.99;57.07;101536.89;1754928;81;21110;-62
2021/03/28 00:20:22;;;;;;;32.00;18.90;;;;;;;4.99;57.14;101531.67;1715388;82;21304;-62
2021/03/28 00:23:15;;;;;;;26.80;16.25;;;;;;;4.95;57.31;101527.20;1731885;83;21138;-62
2021/03/28 00:25:51;;;;;;;29.87;17.85;;;;;;;4.93;57.43;101531.48;1743779;81;21160;-62
2021/03/28 00:28:28;;;;;;;29.77;18.87;;;;;;;4.86;57.73;101529.53;1692428;84;21557;-62
2021/03/28 00:31:28;;;;;;;34.43;19.05;;;;;;;4.84;57.82;101538.63;1679187;84;21734;-62
2021/03/28 00:34:27;;;;;;;34.00;19.87;;;;;;;4.85;57.99;101538.19;1679081;85;21179;-50
2021/03/28 00:37:11;;;;;;;29.82;17.92;;;;;;;4.86;58.30;101526.48;1696473;84;21129;-62
2021/03/28 00:39:52;;;;;;;31.35;19.23;;;;;;;4.87;58.43;101540.00;1679249;84;21579;-62
2021/03/28 00:42:49;;;;;;;29.90;19.12;;;;;;;4.87;58.42;101536.08;1668152;85;21191;-62
2021/03/28 00:45:41;;;;;;;31.55;18.20;;;;;;;4.88;58.28;101533.94;1685333;84;21593;-62
2021/03/28 00:48:22;;;;;;;33.95;18.67;;;;;;;4.87;58.25;101530.86;1679107;85;21159;-62
2021/03/28 00:51:11;;;;;;;30.35;18.80;;;;;;;4.82;58.00;101534.19;1678793;84;21168;-62
2021/03/28 00:53:45;;;;;;;31.80;18.80;;;;;;;4.70;58.20;101530.80;1684749;84;21184;-62
2021/03/28 00:56:18;;;;;;;30.57;20.27;;;;;;;4.62;58.36;101537.09;1690107;84;21331;-50
2021/03/28 00:58:55;;;;;;;31.27;18.77;;;;;;;4.60;58.33;101537.46;1679051;85;21151;-50
2021/03/28 01:02:08;;;;;;;31.12;18.85;;;;;;;4.58;58.49;101538.70;1680696;84;21324;-51
2021/03/28 01:04:54;;;;;;;33.05;19.27;;;;;;;4.58;58.51;101532.19;1697064;83;21583;-50
2021/03/28 01:07:58;;;;;;;31.87;18.52;;;;;;;4.84;58.15;101525.98;1678930;85;21136;-62
2021/03/28 01:11:09;;;;;;;29.00;17.57;;;;;;;5.54;56.47;101522.72;1679294;84;21144;-62
2021/03/28 01:14:22;;;;;;;29.30;17.85;;;;;;;5.68;56.30;101523.08;1687409;84;21175;-62
2021/03/28 01:17:23;;;;;;;30.10;18.52;;;;;;;5.74;56.39;101512.36;1706992;84;21120;-62
2021/03/28 01:20:16;;;;;;;29.32;17.92;;;;;;;5.79;56.41;101519.89;1651093;83;21603;-50
2021/03/28 01:23:13;;;;;;;30.88;18.27;;;;;;;5.85;56.42;101519.59;1705612;84;21123;-50
2021/03/28 01:26:10;;;;;;;29.05;18.45;;;;;;;5.89;56.34;101516.22;1707472;83;21555;-61
2021/03/28 01:28:52;;;;;;;31.00;18.10;;;;;;;5.91;56.30;101512.81;1707235;84;21198;-51
2021/03/28 01:31:40;;;;;;;30.08;18.77;;;;;;;5.95;56.27;101514.66;1701937;84;21297;-50
2021/03/28 01:34:15;;;;;;;36.23;19.92;;;;;;;6.00;56.29;101518.72;1673954;84;21188;-50
2021/03/28 01:37:13;;;;;;;30.60;19.45;;;;;;;6.06;56.19;101515.36;1707431;83;21669;-62
2021/03/28 01:39:58;;;;;;;33.88;20.45;;;;;;;6.11;56.12;101518.97;1692029;84;21179;-50
2021/03/28 01:42:37;;;;;;;31.97;19.35;;;;;;;6.11;56.01;101513.75;1689645;84;21643;-50
2021/03/28 01:45:25;;;;;;;29.92;19.57;;;;;;;6.10;55.79;101520.72;1679021;84;21160;-62
2021/03/28 01:48:35;;;;;;;30.85;19.05;;;;;;;6.06;55.70;101514.95;1684707;84;21136;-62
2021/03/28 01:51:20;;;;;;;31.73;19.15;;;;;;;6.04;55.59;101514.44;1694598;84;21599;-50
2021/03/28 01:54:04;;;;;;;29.27;17.23;;;;;;;6.00;55.57;101517.41;1707019;84;21160;-50
2021/03/28 01:56:52;;;;;;;32.75;18.92;;;;;;;6.00;55.54;101525.25;1705057;83;21293;-50
2021/03/28 01:59:40;;;;;;;34.98;20.20;;;;;;;6.00;55.54;101524.31;1704585;84;21594;-49
2021/03/28 02:02:41;;;;;;;33.45;20.27;;;;;;;5.96;55.37;101519.45;1679313;85;21301;-50
2021/03/28 02:05:31;;;;;;;28.77;17.73;;;;;;;5.93;55.40;101520.68;1678896;84;21175;-51
2021/03/28 02:08:27;;;;;;;32.75;19.85;;;;;;;5.91;55.38;101528.90;1702307;84;21592;-62
2021/03/28 02:11:27;;;;;;;35.60;19.07;;;;;;;5.88;55.42;101527.52;1697227;84;21177;-62
2021/03/28 02:14:21;;;;;;;32.88;19.45;;;;;;;5.84;55.43;101525.66;1695179;85;21200;-50
2021/03/28 02:17:15;;;;;;;31.80;18.70;;;;;;;5.79;55.32;101532.96;1669307;85;21136;-50
2021/03/28 02:20:00;;;;;;;33.85;18.57;;;;;;;5.72;55.25;101530.16;1753573;80;21595;-61
2021/03/28 02:23:16;;;;;;;31.97;17.95;;;;;;;5.68;55.46;101525.69;1751928;82;21149;-62
2021/03/28 02:26:19;;;;;;;33.13;18.52;;;;;;;5.64;55.46;101520.83;1713783;82;21585;-50
2021/03/28 02:29:08;;;;;;;28.80;17.95;;;;;;;5.58;55.33;101525.88;1737637;82;21547;-49
2021/03/28 02:32:08;;;;;;;27.60;17.15;;;;;;;5.54;55.22;101520.11;1753906;82;21099;-50
2021/03/28 02:35:00;;;;;;;32.42;19.07;;;;;;;5.45;55.01;101522.06;1734374;81;21195;-50
2021/03/28 02:37:49;;;;;;;29.98;17.37;;;;;;;5.33;54.88;101530.02;1744965;82;21272;-50
2021/03/28 02:40:37;;;;;;;32.45;18.32;;;;;;;5.24;55.09;101522.35;1751114;80;21293;-50
2021/03/28 02:43:32;;;;;;;32.48;18.80;;;;;;;5.20;54.98;101524.87;1742180;81;21582;-49
2021/03/28 02:46:24;;;;;;;35.33;20.02;;;;;;;5.10;55.00;101521.53;1730281;81;21103;-50
2021/03/28 02:49:09;;;;;;;32.33;19.15;;;;;;;5.05;55.13;101514.89;1749197;82;21574;-61
2021/03/28 02:52:14;;;;;;;30.32;18.17;;;;;;;4.98;55.43;101516.86;1747521;81;21573;-62
2021/03/28 02:55:00;;;;;;;38.10;20.15;;;;;;;5.02;55.50;101521.73;1743334;81;21218;-61
2021/03/28 02:57:42;;;;;;;29.40;18.62;;;;;;;5.02;55.53;101517.41;1751697;82;21574;-61
2021/03/28 03:00:37;;;;;;;34.18;18.25;;;;;;;5.02;55.52;101522.63;1752035;82;21538;-61
2021/03/28 03:03:14;;;;;;;34.45;19.10;;;;;;;5.00;55.54;101520.80;1751735;81;21127;-61
2021/03/28 03:06:10;;;;;;;31.17;17.70;;;;;;;4.96;56.13;101519.84;1753572;80;21849;-61
2021/03/28 03:08:46;;;;;;;31.25;18.15;;;;;;;4.88;56.28;101518.28;1753709;82;21163;-61
2021/03/28 03:12:11;;;;;;;30.27;18.50;;;;;;;4.80;56.22;101523.72;1732425;80;21311;-61
2021/03/28 03:15:15;;;;;;;31.30;18.87;;;;;;;4.78;56.14;101523.19;1731081;82;21123;-61
2021/03/28 03:17:50;;;;;;;34.30;18.17;;;;;;;4.77;56.12;101515.80;1756044;82;21115;-61
2021/03/28 03:20:39;;;;;;;36.38;20.70;;;;;;;4.78;56.20;101525.80;1749716;80;21183;-61
2021/03/28 03:24:03;;;;;;;34.23;20.72;;;;;;;4.77;56.33;101523.62;1733356;82;21167;-50
2021/03/28 03:27:20;;;;;;;35.90;21.50;;;;;;;4.78;56.46;101522.79;1751627;82;21145;-50
2021/03/28 03:29:59;;;;;;;36.95;19.87;;;;;;;4.80;56.49;101529.34;1733106;82;21669;-50
2021/03/28 03:33:03;;;;;;;30.20;19.12;;;;;;;4.82;56.55;101530.27;1726142;83;21134;-50
2021/03/28 03:35:59;;;;;;;31.17;18.40;;;;;;;4.81;56.63;101535.92;1744935;82;21623;-50
2021/03/28 03:38:57;;;;;;;32.73;19.05;;;;;;;4.83;56.77;101539.47;1735536;82;21092;-50
2021/03/28 03:41:59;;;;;;;34.83;21.37;;;;;;;4.82;56.87;101532.88;1732013;80;21608;-50
2021/03/28 03:45:07;;;;;;;63.13;24.18;;;;;;;4.79;56.92;101535.00;1736928;80;21574;-62
2021/03/28 03:47:38;;;;;;;38.08;21.40;;;;;;;4.83;57.18;101535.96;1748447;82;21442;-61
2021/03/28 03:50:19;;;;;;;37.90;22.85;;;;;;;4.89;57.06;101536.14;1737347;81;21178;-61
2021/03/28 03:53:19;;;;;;;38.13;21.82;;;;;;;4.91;56.91;101531.86;1732090;82;21257;-61
2021/03/28 03:56:02;;;;;;;34.53;19.35;;;;;;;4.94;56.84;101537.17;1741191;82;21586;-61
2021/03/28 03:58:40;;;;;;;32.10;19.00;;;;;;;4.94;56.73;101541.08;1745886;81;21107;-61
2021/03/28 04:01:35;;;;;;;40.73;19.82;;;;;;;4.91;56.70;101550.12;1726492;82;21155;-61
2021/03/28 04:04:26;;;;;;;39.85;19.92;;;;;;;4.93;57.18;101553.66;1741061;82;21131;-49
2021/03/28 04:07:27;;;;;;;33.95;20.57;;;;;;;5.14;56.68;101553.81;1736634;81;21618;-61
2021/03/28 04:10:09;;;;;;;47.43;21.85;;;;;;;5.20;56.57;101552.69;1756408;80;21580;-62
2021/03/28 04:12:51;;;;;;;41.37;21.93;;;;;;;5.35;56.95;101562.67;1756106;82;21139;-61
2021/03/28 04:16:04;;;;;;;37.98;22.60;;;;;;;5.56;56.62;101562.39;1755876;82;21611;-61
2021/03/28 04:19:09;;;;;;;43.95;22.32;;;;;;;5.63;56.09;101559.11;1753231;82;21546;-61
2021/03/28 04:21:53;;;;;;;37.40;20.65;;;;;;;5.63;55.92;101561.72;1702720;83;21147;-61
2021/03/28 04:24:47;;;;;;;40.25;22.87;;;;;;;5.62;55.92;101566.91;1695837;83;21130;-61
2021/03/28 04:27:44;;;;;;;37.55;22.62;;;;;;;5.63;56.05;101560.84;1752250;82;21578;-61
2021/03/28 04:30:57;;;;;;;40.10;23.38;;;;;;;5.65;56.19;101567.87;1756143;82;21582;-61
2021/03/28 04:33:52;;;;;;;36.60;21.45;;;;;;;5.68;56.31;101572.31;1686382;83;21134;-50
2021/03/28 04:37:00;;;;;;;45.03;24.43;;;;;;;5.70;56.46;101572.34;1751518;80;21166;-49
2021/03/28 04:39:53;;;;;;;54.83;29.82;;;;;;;5.69;56.84;101575.79;1756467;80;21152;-49
2021/03/28 04:42:51;;;;;;;55.35;31.25;;;;;;;5.74;57.05;101575.50;1753419;81;21558;-49
2021/03/28 04:46:01;;;;;;;47.08;27.17;;;;;;;5.94;56.76;101574.31;1726884;82;21542;-50
2021/03/28 04:49:09;;;;;;;44.95;26.10;;;;;;;5.91;57.04;101572.92;1726414;83;21182;-51
2021/03/28 04:52:07;;;;;;;46.30;28.47;;;;;;;5.99;57.16;101575.72;1753931;82;21160;-61
2021/03/28 04:55:10;;;;;;;53.17;32.23;;;;;;;6.10;57.18;101578.23;1755369;81;21175;-61
2021/03/28 04:58:08;;;;;;;51.02;31.45;;;;;;;6.18;57.49;101579.72;1700904;83;21292;-62
2021/03/28 05:01:01;;;;;;;49.27;28.50;;;;;;;6.25;57.78;101584.27;1712879;83;21156;-61
2021/03/28 05:03:59;;;;;;;48.55;27.50;;;;;;;6.36;57.89;101580.59;1749400;82;21150;-61
2021/03/28 05:06:57;;;;;;;61.63;28.35;;;;;;;6.52;57.91;101588.82;1755202;82;21143;-61
2021/03/28 05:10:04;;;;;;;52.55;26.55;;;;;;;6.76;57.66;101592.44;1749171;82;21578;-61
2021/03/28 05:13:02;;;;;;;45.52;27.13;;;;;;;6.99;57.86;101592.05;1732655;81;21578;-61
2021/03/28 05:15:53;;;;;;;47.33;27.90;;;;;;;7.16;57.58;101588.92;1747735;81;21625;-51
2021/03/28 05:19:05;;;;;;;44.95;25.62;;;;;;;7.28;57.44;101584.83;1747492;82;21532;-51
2021/03/28 05:22:20;;;;;;;46.73;28.40;;;;;;;7.40;57.72;101590.73;1736900;81;21571;-50
2021/03/28 05:25:30;;;;;;;44.58;29.18;;;;;;;7.58;57.54;101584.10;1744046;82;21159;-62
2021/03/28 05:28:54;;;;;;;47.90;27.25;;;;;;;7.73;57.55;101590.92;1742356;82;21269;-61
2021/03/28 05:32:02;;;;;;;49.05;29.07;;;;;;;7.93;57.86;101589.11;1747514;81;21159;-61
2021/03/28 05:35:12;;;;;;;42.17;27.07;;;;;;;8.14;58.31;101590.36;1747774;81;21159;-51
2021/03/28 05:38:20;;;;;;;48.40;28.47;;;;;;;8.20;59.20;101591.75;1746643;82;21584;-61
2021/03/28 05:41:03;;;;;;;46.40;28.25;;;;;;;8.44;59.55;101587.34;1726306;82;21374;-62
2021/03/28 05:44:02;;;;;;;52.23;28.05;;;;;;;8.70;59.45;101587.32;1747844;82;21097;-62
2021/03/28 05:46:43;;;;;;;48.78;28.27;;;;;;;8.92;59.34;101584.16;1748124;81;21135;-53
2021/03/28 05:49:45;;;;;;;44.77;28.33;;;;;;;9.18;59.13;101587.55;1724386;82;21289;-52
2021/03/28 05:52:38;;;;;;;50.00;28.23;;;;;;;9.38;58.97;101589.56;1727173;82;21591;-62
2021/03/28 05:55:32;;;;;;;43.38;27.85;;;;;;;9.60;59.14;101588.06;1748345;81;21555;-61
2021/03/28 05:58:39;;;;;;;54.88;30.02;;;;;;;9.82;58.59;101583.91;1726383;81;21114;-63
2021/03/28 06:01:30;;;;;;;48.83;27.98;;;;;;;10.17;58.04;101584.22;1733300;82;21582;-51
2021/03/28 06:04:33;;;;;;;43.48;26.82;;;;;;;10.37;57.27;101576.50;1748118;81;21139;-51
2021/03/28 06:07:32;;;;;;;47.75;28.00;;;;;;;10.36;57.39;101585.26;1727579;81;21586;-51
2021/03/28 06:10:40;;;;;;;46.63;27.90;;;;;;;10.66;57.31;101584.64;1718525;82;21155;-62
2021/03/28 06:13:57;;;;;;;42.88;28.55;;;;;;;10.78;56.99;101594.36;1718798;82;21183;-62
2021/03/28 06:17:09;;;;;;;40.28;26.23;;;;;;;10.96;57.10;101588.32;1723972;81;21610;-61
2021/03/28 06:20:04;;;;;;;41.75;28.17;;;;;;;11.23;57.01;101591.09;1725202;82;21590;-58
2021/03/28 06:22:59;;;;;;;45.70;27.95;;;;;;;11.54;56.77;101589.87;1738136;82;21574;-61
2021/03/28 06:26:14;;;;;;;44.18;28.32;;;;;;;11.85;56.43;101592.16;1689415;83;21159;-53
2021/03/28 06:29:28;;;;;;;45.33;28.65;;;;;;;12.13;56.17;101588.70;1718470;83;21155;-62
2021/03/28 06:32:24;;;;;;;40.00;26.60;;;;;;;12.50;55.74;101591.34;1741842;82;21562;-51
2021/03/28 06:35:00;;;;;;;59.35;33.95;;;;;;;12.83;55.15;101592.62;1748231;81;21523;-61
2021/03/28 06:37:58;;;;;;;45.78;27.22;;;;;;;13.14;55.18;101583.27;1748247;82;21571;-52
2021/03/28 06:40:52;;;;;;;42.67;27.10;;;;;;;13.40;54.97;101585.80;1741590;81;21574;-61
2021/03/28 06:44:13;;;;;;;38.40;26.20;;;;;;;13.66;54.57;101579.55;1729416;81;21547;-61
2021/03/28 06:47:09;;;;;;;40.95;27.40;;;;;;;13.92;53.97;101574.52;1711103;83;21313;-53
2021/03/28 06:50:30;;;;;;;39.00;25.90;;;;;;;14.21;53.36;101569.43;1725698;82;21127;-52
2021/03/28 06:53:13;;;;;;;36.97;24.10;;;;;;;14.47;52.93;101570.98;1693808;84;21189;-53
2021/03/28 06:55:43;;;;;;;35.52;24.07;;;;;;;14.67;52.72;101576.09;1748180;81;21543;-61
2021/03/28 06:58:42;;;;;;;34.30;23.92;;;;;;;14.83;52.55;101576.37;1710697;84;21543;-53
2021/03/28 07:01:43;;;;;;;29.85;21.20;;;;;;;15.03;52.37;101573.95;1746189;82;21173;-53
2021/03/28 07:04:39;;;;;;;36.63;23.00;;;;;;;15.27;51.90;101567.47;1712339;84;21158;-54
2021/03/28 07:07:46;;;;;;;34.92;22.85;;;;;;;15.46;51.44;101573.84;1746379;82;21167;-62
2021/03/28 07:10:42;;;;;;;33.40;22.40;;;;;;;15.67;50.77;101567.81;1724372;82;21143;-62
2021/03/28 07:13:53;;;;;;;32.00;22.45;;;;;;;15.89;50.19;101576.37;1717887;83;21182;-54
2021/03/28 07:17:03;;;;;;;33.67;21.73;;;;;;;16.08;49.91;101577.42;1745680;82;21138;-62
2021/03/28 07:20:17;;;;;;;30.92;21.90;;;;;;;16.38;49.37;101581.78;1736964;81;21601;-52
2021/03/28 07:23:16;;;;;;;30.27;22.55;;;;;;;16.66;48.83;101576.85;1753108;82;21143;-62
2021/03/28 07:26:13;;;;;;;33.35;22.22;;;;;;;16.89;48.18;101568.87;1753628;81;21656;-57
2021/03/28 07:29:15;;;;;;;30.48;22.07;;;;;;;17.10;47.57;101570.25;1739876;81;21269;-53
2021/03/28 07:32:03;;;;;;;31.00;22.13;;;;;;;17.30;46.72;101572.97;1749168;82;21147;-53
2021/03/28 07:35:23;;;;;;;31.27;22.37;;;;;;;17.53;46.47;101568.47;1754363;82;21571;-53
2021/03/28 07:38:35;;;;;;;28.62;22.00;;;;;;;17.81;45.80;101572.70;1739617;81;21577;-62
2021/03/28 07:41:17;;;;;;;30.92;21.40;;;;;;;18.13;45.57;101564.85;1706338;83;21225;-63
2021/03/28 07:44:15;;;;;;;27.33;21.83;;;;;;;18.33;44.43;101564.81;1696311;84;21643;-63
2021/03/28 07:47:32;;;;;;;29.55;21.25;;;;;;;18.55;44.02;101563.80;1686426;83;21184;-64
2021/03/28 07:50:29;;;;;;;31.87;21.73;;;;;;;18.75;43.43;101562.39;1637827;86;21216;-61
2021/03/28 07:53:21;;;;;;;28.07;20.55;;;;;;;18.97;42.69;101556.02;1629236;87;21201;-62
2021/03/28 07:56:35;;;;;;;27.95;22.22;;;;;;;19.12;41.98;101557.36;1643085;87;21337;-62
2021/03/28 07:59:38;;;;;;;30.70;22.37;;;;;;;19.34;41.48;101552.25;1648827;87;21205;-62
2021/03/28 08:02:37;;;;;;;30.05;22.05;;;;;;;19.58;41.00;101549.73;1649068;87;21594;-62
2021/03/28 08:05:36;;;;;;;26.97;21.23;;;;;;;19.74;40.70;101552.34;1641159;85;21577;-55
2021/03/28 08:08:33;;;;;;;28.77;21.07;;;;;;;19.97;40.45;101545.87;1638124;87;21205;-54
2021/03/28 08:11:30;;;;;;;30.00;21.95;;;;;;;20.21;39.78;101552.19;1630500;87;21625;-54
2021/03/28 08:14:24;;;;;;;28.23;20.65;;;;;;;20.48;39.36;101545.45;1641110;87;21165;-54
2021/03/28 08:17:27;;;;;;;28.00;20.90;;;;;;;20.68;38.38;101539.39;1652212;87;21662;-55
2021/03/28 08:20:31;;;;;;;27.32;19.75;;;;;;;20.95;38.44;101534.00;1652685;87;21185;-56
2021/03/28 08:23:38;;;;;;;26.73;19.85;;;;;;;21.20;37.83;101541.94;1633216;87;21573;-53
2021/03/28 08:26:29;;;;;;;25.52;20.37;;;;;;;21.41;36.44;101534.02;1652637;87;21239;-62
2021/03/28 08:29:33;;;;;;;24.65;18.70;;;;;;;21.63;37.19;101529.19;1652460;87;21355;-61
2021/03/28 08:32:33;;;;;;;26.97;19.10;;;;;;;21.87;36.24;101527.75;1642245;85;21145;-62
2021/03/28 08:35:33;;;;;;;26.95;19.42;;;;;;;22.21;35.88;101520.95;1645560;87;21197;-54
2021/03/28 08:38:31;;;;;;;26.25;19.87;;;;;;;22.46;35.20;101518.11;1652387;87;21211;-55
2021/03/28 08:41:30;;;;;;;27.13;20.08;;;;;;;22.82;34.22;101516.52;1641221;86;21169;-62
2021/03/28 08:44:29;;;;;;;24.70;19.07;;;;;;;22.75;32.64;101509.20;1624597;87;21759;-55
2021/03/28 08:47:31;;;;;;;23.63;18.00;;;;;;;22.80;34.26;101514.38;1647903;87;21194;-62
2021/03/28 08:50:37;;;;;;;24.60;18.35;;;;;;;22.94;33.92;101501.20;1641916;86;21613;-55
2021/03/28 08:53:17;;;;;;;26.60;18.87;;;;;;;23.18;33.39;101504.52;1629033;87;21201;-55
2021/03/28 08:56:23;;;;;;;25.35;19.12;;;;;;;23.60;33.71;101497.66;1647924;86;21336;-55
2021/03/28 08:59:14;;;;;;;23.75;17.20;;;;;;;23.83;32.80;101497.85;1632671;86;22032;-62
2021/03/28 09:02:21;;;;;;;25.52;19.52;;;;;;;24.12;32.59;101492.82;1627784;87;21195;-55
2021/03/28 09:05:15;;;;;;;23.55;17.30;;;;;;;24.33;31.76;101493.98;1673256;84;21331;-62
2021/03/28 09:07:50;;;;;;;23.15;18.77;;;;;;;24.65;31.84;101486.02;1665588;84;21166;-62
2021/03/28 09:10:53;;;;;;;26.45;18.73;;;;;;;24.77;29.77;101485.36;1672992;84;21194;-62
2021/03/28 09:14:13;;;;;;;23.83;17.90;;;;;;;24.53;28.94;101493.41;1674667;85;21581;-62
2021/03/28 09:17:07;;;;;;;22.65;17.95;;;;;;;24.15;30.33;101495.36;1658260;83;21158;-62
2021/03/28 09:20:07;;;;;;;22.60;17.77;;;;;;;24.30;29.06;101489.64;1650899;85;21491;-62
2021/03/28 09:23:01;;;;;;;22.55;18.07;;;;;;;24.29;30.39;101482.98;1677155;85;21174;-63
2021/03/28 09:25:57;;;;;;;22.82;17.52;;;;;;;24.49;30.71;101479.26;1652325;84;21208;-63
2021/03/28 09:29:33;;;;;;;23.57;18.70;;;;;;;24.79;30.32;101471.83;1676824;83;21330;-62
2021/03/28 09:32:27;;;;;;;25.70;19.30;;;;;;;24.93;28.13;101472.41;1680158;83;21158;-63
2021/03/28 09:35:38;;;;;;;25.00;19.85;;;;;;;24.85;29.32;101471.95;1712632;82;21177;-61
2021/03/28 09:38:43;;;;;;;22.45;17.27;;;;;;;24.53;27.20;101471.38;1650767;86;21636;-63
2021/03/28 09:41:29;;;;;;;24.35;18.90;;;;;;;23.98;27.87;101476.06;1674570;84;21231;-63
2021/03/28 09:44:02;;;;;;;25.40;19.17;;;;;;;23.67;28.45;101470.00;1677558;83;21205;-63
2021/03/28 09:46:44;;;;;;;28.83;20.05;;;;;;;23.69;28.44;101464.93;1672195;85;21335;-61
2021/03/28 09:49:51;;;;;;;396.07;47.75;;;;;;;23.78;27.85;101460.04;1661888;85;21166;-61
2021/03/28 09:52:39;;;;;;;27.75;19.40;;;;;;;23.67;27.09;101467.31;1673281;83;21162;-62
2021/03/28 09:55:28;;;;;;;27.48;19.45;;;;;;;23.77;27.71;101455.16;1693943;82;21578;-62
2021/03/28 09:58:52;;;;;;;25.50;19.35;;;;;;;23.76;27.30;101453.41;1677226;85;21589;-61
2021/03/28 10:01:45;;;;;;;22.85;18.07;;;;;;;23.76;28.09;101447.55;1686229;83;21174;-62
2021/03/28 10:04:57;;;;;;;23.87;18.57;;;;;;;24.36;27.53;101442.70;1672649;83;21185;-62
2021/03/28 10:07:41;;;;;;;40.10;18.80;;;;;;;24.67;27.61;101435.67;1672632;83;21166;-63
2021/03/28 10:10:27;;;;;;;29.15;20.08;;;;;;;25.21;28.21;101433.13;1678716;83;21345;-63
2021/03/28 10:13:43;;;;;;;24.80;18.57;;;;;;;25.59;28.44;101434.58;1664998;83;21299;-63
2021/03/28 10:16:39;;;;;;;24.05;17.77;;;;;;;26.33;28.23;101423.87;1809295;77;22175;-62
2021/03/28 10:19:24;;;;;;;28.30;22.05;;;;;;;26.60;27.15;101423.08;1761960;81;21519;-62
2021/03/28 10:22:31;;;;;;;24.37;20.23;;;;;;;26.82;24.08;101423.95;1743294;80;21108;-62
2021/03/28 10:25:39;;;;;;;27.00;20.52;;;;;;;26.52;23.79;101421.73;1731826;81;21151;-62
2021/03/28 10:28:27;;;;;;;33.10;21.12;;;;;;;25.91;23.74;101423.22;1749150;81;21570;-61
2021/03/28 10:31:07;;;;;;;27.50;21.55;;;;;;;25.35;22.55;101425.12;1755618;81;21095;-61
2021/03/28 10:34:14;;;;;;;25.62;19.92;;;;;;;24.85;23.45;101419.46;1726773;83;21174;-61
2021/03/28 10:36:54;;;;;;;27.13;21.10;;;;;;;24.91;23.38;101415.97;1724307;83;21155;-61
2021/03/28 10:39:51;;;;;;;26.40;20.60;;;;;;;24.82;24.74;101408.86;1665726;83;21637;-61
2021/03/28 10:43:06;;;;;;;28.17;20.20;;;;;;;25.06;25.16;101408.83;1691716;85;21147;-61
2021/03/28 10:45:48;;;;;;;24.95;20.25;;;;;;;25.41;23.24;101401.47;1634512;85;21574;-61
2021/03/28 10:48:44;;;;;;;22.93;18.73;;;;;;;25.24;22.97;101406.90;1709556;83;21165;-61
2021/03/28 10:51:48;;;;;;;23.62;18.40;;;;;;;24.91;21.58;101403.84;1690608;83;21132;-62
2021/03/28 10:54:53;;;;;;;23.80;18.00;;;;;;;24.56;23.38;101407.98;1654755;85;21617;-62
2021/03/28 10:57:57;;;;;;;23.20;18.48;;;;;;;24.78;24.08;101402.80;1672160;82;21292;-61
2021/03/28 11:01:14;;;;;;;23.10;19.17;;;;;;;24.92;22.86;101396.63;1712943;82;21170;-62
2021/03/28 11:04:21;;;;;;;21.90;15.90;;;;;;;24.84;22.73;101401.57;1720234;83;21305;-61
2021/03/28 11:07:26;;;;;;;20.17;16.02;;;;;;;24.99;23.33;101393.09;1710836;82;21158;-61
2021/03/28 11:10:35;;;;;;;22.25;16.40;;;;;;;25.53;22.62;101394.05;1709973;82;21599;-62
2021/03/28 11:13:45;;;;;;;21.80;16.37;;;;;;;25.61;21.78;101389.05;1720501;83;21543;-62
2021/03/28 11:16:46;;;;;;;21.37;15.30;;;;;;;25.34;21.04;101390.20;1701828;83;21139;-62
2021/03/28 11:20:05;;;;;;;19.87;16.93;;;;;;;24.66;20.85;101388.17;1645063;85;21329;-62
2021/03/28 11:22:54;;;;;;;21.82;16.95;;;;;;;24.57;22.33;101395.41;1726700;83;21123;-62
2021/03/28 11:25:29;;;;;;;24.07;16.37;;;;;;;24.63;23.05;101393.23;1743850;82;21123;-62
2021/03/28 11:28:37;;;;;;;23.38;17.95;;;;;;;25.09;23.64;101388.92;1755749;82;21281;-55
2021/03/28 11:31:29;;;;;;;21.73;16.97;;;;;;;25.27;22.51;101389.67;1755900;80;21581;-56
2021/03/28 11:34:20;;;;;;;23.80;17.98;;;;;;;25.11;22.63;101383.47;1755832;81;21171;-62
2021/03/28 11:37:02;;;;;;;;;;;;;;;25.09;22.56;101376.80;1758837;82;21512;-62
2021/03/28 11:39:35;;;;;;;18.80;14.93;;;;;;;25.08;22.84;101359.79;1756326;80;20270;-62
2021/03/28 11:42:15;;;;;;;23.00;17.23;;;;;;;25.37;22.78;101350.95;1756555;82;21159;-55
2021/03/28 11:45:07;;;;;;;26.03;17.93;;;;;;;25.76;24.15;101345.95;1747462;80;21174;-62
2021/03/28 11:47:52;;;;;;;21.95;16.77;;;;;;;26.05;21.97;101341.45;1753582;82;21745;-54
2021/03/28 11:50:38;;;;;;;20.15;15.98;;;;;;;26.02;22.55;101342.99;1756085;80;21151;-54
2021/03/28 11:53:25;;;;;;;25.32;17.62;;;;;;;26.15;21.45;101348.52;1755466;81;21176;-61
2021/03/28 11:55:58;;;;;;;20.62;16.27;;;;;;;25.92;21.62;101340.48;1754265;80;21172;-61
2021/03/28 11:58:34;;;;;;;21.73;16.60;;;;;;;25.62;21.72;101346.80;1753894;81;21167;-61
2021/03/28 12:01:02;;;;;;;23.62;16.17;;;;;;;25.45;21.42;101345.13;1699890;81;21119;-63
2021/03/28 12:03:34;;;;;;;18.10;15.03;;;;;;;25.23;21.37;101340.97;1726377;82;21123;-62
2021/03/28 12:06:21;;;;;;;19.67;15.13;;;;;;;25.07;22.13;101343.70;1746855;81;21439;-62
2021/03/28 12:08:56;;;;;;;16.95;14.13;;;;;;;25.15;21.01;101344.12;1754741;81;21737;-62
2021/03/28 12:11:48;;;;;;;17.57;13.55;;;;;;;25.05;21.36;101333.03;1739941;82;21127;-62
2021/03/28 12:14:28;;;;;;;17.12;13.28;;;;;;;25.20;21.87;101329.91;1720399;83;21162;-62
2021/03/28 12:17:15;;;;;;;19.12;14.60;;;;;;;25.58;22.33;101326.38;1753095;82;21558;-62
2021/03/28 12:20:19;;;;;;;17.77;13.70;;;;;;;25.97;22.42;101318.14;1750655;82;21167;-62
2021/03/28 12:22:57;;;;;;;19.02;15.32;;;;;;;26.52;22.26;101315.11;1726487;83;21284;-62
2021/03/28 12:25:32;;;;;;;17.75;14.47;;;;;;;26.96;21.11;101310.95;1749639;80;21340;-62
2021/03/28 12:28:22;;;;;;;18.10;14.28;;;;;;;27.04;19.98;101315.36;1736715;82;21163;-62
2021/03/28 12:30:51;;;;;;;16.80;12.60;;;;;;;26.83;19.96;101309.09;1726398;82;21211;-62
2021/03/28 12:33:21;;;;;;;20.77;16.12;;;;;;;26.52;20.11;101312.41;1753257;81;21539;-62
2021/03/28 12:36:00;;;;;;;21.15;15.20;;;;;;;26.01;19.75;101309.39;1755655;82;21215;-62
2021/03/28 12:38:39;;;;;;;18.00;13.32;;;;;;;25.77;20.53;101311.30;1755151;82;21542;-62
2021/03/28 12:41:22;;;;;;;17.20;15.00;;;;;;;25.76;20.18;101309.09;1756268;80;21112;-61
2021/03/28 12:44:11;;;;;;;16.20;13.78;;;;;;;25.66;20.41;101310.61;1756294;82;21159;-61
2021/03/28 12:46:49;;;;;;;17.52;14.05;;;;;;;25.65;21.22;101302.14;1755591;80;21162;-61
2021/03/28 12:49:25;;;;;;;18.12;13.83;;;;;;;25.77;20.96;101305.44;1755902;82;21147;-62
2021/03/28 12:52:19;;;;;;;20.92;15.58;;;;;;;25.72;20.72;101294.06;1697347;83;21138;-62
2021/03/28 12:54:57;;;;;;;20.97;16.80;;;;;;;25.80;21.29;101293.58;1756125;82;21158;-62
2021/03/28 12:57:47;;;;;;;21.68;16.45;;;;;;;25.62;21.73;101294.23;1735753;81;21672;-54
2021/03/28 13:00:50;;;;;;;21.73;16.80;;;;;;;25.39;21.99;101298.69;1736750;82;21126;-54
2021/03/28 13:03:41;;;;;;;19.55;15.80;;;;;;;25.26;22.32;101299.53;1756022;82;21135;-54
2021/03/28 13:06:35;;;;;;;19.02;15.30;;;;;;;25.06;22.62;101288.98;1749253;80;21559;-61
2021/03/28 13:09:16;;;;;;;20.50;16.67;;;;;;;24.92;22.79;101290.27;1752543;82;21550;-62
2021/03/28 13:11:57;;;;;;;20.57;16.77;;;;;;;24.89;22.55;101280.56;1750104;81;21204;-62
2021/03/28 13:14:41;;;;;;;22.13;17.30;;;;;;;24.82;22.43;101282.33;1746305;82;21289;-62
2021/03/28 13:17:19;;;;;;;30.25;16.95;;;;;;;24.80;22.72;101273.02;1753035;82;21150;-62